sensor_id;sensor_type;location;lat;lon;timestamp;P1;durP1;ratioP1;P2;durP2;ratioP2
26588;SDS011;14235;48.532;8.722;2023-12-20T00:02:16;2.22;;;1.48;;
26588;SDS011;14235;48.532;8.722;2023-12-20T00:04:42;0.98;;;0.98;;
26588;SDS011;14235;48.532;8.722;2023-12-20T00:07:08;0.80;;;0.80;;
26588;SDS011;14235;48.532;8.722;2023-12-20T00:09:33;1.00;;;1.00;;
26588;SDS011;14235;48.532;8.722;2023-12-20T00:11:59;1.17;;;1.08;;
26588;SDS011;14235;48.532;8.722;2023-12-20T00:14:24;0.98;;;0.98;;
26588;SDS011;14235;48.532;8.722;2023-12-20T00:16:50;1.00;;;0.80;;
26588;SDS011;14235;48.532;8.722;2023-12-20T00:19:15;1.02;;;1.02;;
26588;SDS011;14235;48.532;8.722;2023-12-20T00:21:41;1.10;;;1.10;;
26588;SDS011;14235;48.532;8.722;2023-12-20T00:24:07;1.20;;;1.10;;
26588;SDS011;14235;48.532;8.722;2023-12-20T00:26:32;1.85;;;1.02;;
26588;SDS011;14235;48.532;8.722;2023-12-20T00:28:58;0.90;;;0.90;;
26588;SDS011;14235;48.532;8.722;2023-12-20T00:31:24;0.98;;;0.98;;
26588;SDS011;14235;48.532;8.722;2023-12-20T00:33:49;0.88;;;0.88;;
26588;SDS011;14235;48.532;8.722;2023-12-20T00:36:15;0.80;;;0.80;;
26588;SDS011;14235;48.532;8.722;2023-12-20T00:38:40;1.00;;;1.00;;
26588;SDS011;14235;48.532;8.722;2023-12-20T00:41:06;0.70;;;0.70;;
26588;SDS011;14235;48.532;8.722;2023-12-20T00:43:31;1.05;;;1.05;;
26588;SDS011;14235;48.532;8.722;2023-12-20T00:45:58;0.80;;;0.80;;
26588;SDS011;14235;48.532;8.722;2023-12-20T00:48:25;0.82;;;0.82;;
26588;SDS011;14235;48.532;8.722;2023-12-20T00:50:52;0.85;;;0.85;;
26588;SDS011;14235;48.532;8.722;2023-12-20T00:53:17;0.95;;;0.95;;
26588;SDS011;14235;48.532;8.722;2023-12-20T00:55:43;0.70;;;0.70;;
26588;SDS011;14235;48.532;8.722;2023-12-20T00:58:09;0.82;;;0.82;;
26588;SDS011;14235;48.532;8.722;2023-12-20T01:00:35;0.90;;;0.90;;
26588;SDS011;14235;48.532;8.722;2023-12-20T01:03:01;1.38;;;0.90;;
26588;SDS011;14235;48.532;8.722;2023-12-20T01:05:26;0.70;;;0.70;;
26588;SDS011;14235;48.532;8.722;2023-12-20T01:07:52;0.80;;;0.80;;
26588;SDS011;14235;48.532;8.722;2023-12-20T01:10:18;0.80;;;0.80;;
26588;SDS011;14235;48.532;8.722;2023-12-20T01:12:43;0.80;;;0.80;;
26588;SDS011;14235;48.532;8.722;2023-12-20T01:15:09;0.85;;;0.85;;
26588;SDS011;14235;48.532;8.722;2023-12-20T01:17:35;0.80;;;0.80;;
26588;SDS011;14235;48.532;8.722;2023-12-20T01:20:01;1.13;;;0.90;;
26588;SDS011;14235;48.532;8.722;2023-12-20T01:22:26;1.00;;;0.77;;
26588;SDS011;14235;48.532;8.722;2023-12-20T01:24:52;0.88;;;0.88;;
26588;SDS011;14235;48.532;8.722;2023-12-20T01:27:17;0.77;;;0.77;;
26588;SDS011;14235;48.532;8.722;2023-12-20T01:29:43;2.67;;;1.00;;
26588;SDS011;14235;48.532;8.722;2023-12-20T01:32:09;0.88;;;0.88;;
26588;SDS011;14235;48.532;8.722;2023-12-20T01:34:34;1.20;;;1.10;;
26588;SDS011;14235;48.532;8.722;2023-12-20T01:37:00;1.15;;;1.05;;
26588;SDS011;14235;48.532;8.722;2023-12-20T01:39:27;1.10;;;0.95;;
26588;SDS011;14235;48.532;8.722;2023-12-20T01:41:53;0.88;;;0.88;;
26588;SDS011;14235;48.532;8.722;2023-12-20T01:44:18;1.00;;;1.00;;
26588;SDS011;14235;48.532;8.722;2023-12-20T01:46:44;1.23;;;0.85;;
26588;SDS011;14235;48.532;8.722;2023-12-20T01:49:11;1.30;;;1.23;;
26588;SDS011;14235;48.532;8.722;2023-12-20T01:51:36;0.70;;;0.70;;
26588;SDS011;14235;48.532;8.722;2023-12-20T01:54:05;0.80;;;0.80;;
26588;SDS011;14235;48.532;8.722;2023-12-20T01:57:02;0.60;;;0.60;;
26588;SDS011;14235;48.532;8.722;2023-12-20T01:59:38;0.68;;;0.68;;
26588;SDS011;14235;48.532;8.722;2023-12-20T02:02:05;1.20;;;0.55;;
26588;SDS011;14235;48.532;8.722;2023-12-20T02:04:32;0.95;;;0.63;;
26588;SDS011;14235;48.532;8.722;2023-12-20T02:06:58;1.60;;;0.80;;
26588;SDS011;14235;48.532;8.722;2023-12-20T02:09:24;0.35;;;0.35;;
26588;SDS011;14235;48.532;8.722;2023-12-20T02:11:50;0.47;;;0.47;;
26588;SDS011;14235;48.532;8.722;2023-12-20T02:14:18;0.80;;;0.75;;
26588;SDS011;14235;48.532;8.722;2023-12-20T02:16:43;0.60;;;0.60;;
26588;SDS011;14235;48.532;8.722;2023-12-20T02:19:12;0.68;;;0.68;;
26588;SDS011;14235;48.532;8.722;2023-12-20T02:21:39;0.50;;;0.50;;
26588;SDS011;14235;48.532;8.722;2023-12-20T02:24:05;0.32;;;0.32;;
26588;SDS011;14235;48.532;8.722;2023-12-20T02:26:31;0.45;;;0.45;;
26588;SDS011;14235;48.532;8.722;2023-12-20T02:28:58;0.30;;;0.30;;
26588;SDS011;14235;48.532;8.722;2023-12-20T02:31:25;0.57;;;0.47;;
26588;SDS011;14235;48.532;8.722;2023-12-20T02:33:50;0.30;;;0.30;;
26588;SDS011;14235;48.532;8.722;2023-12-20T02:36:16;0.20;;;0.20;;
26588;SDS011;14235;48.532;8.722;2023-12-20T02:38:41;0.20;;;0.20;;
26588;SDS011;14235;48.532;8.722;2023-12-20T02:41:07;0.13;;;0.13;;
26588;SDS011;14235;48.532;8.722;2023-12-20T02:43:32;0.30;;;0.10;;
26588;SDS011;14235;48.532;8.722;2023-12-20T02:45:58;0.00;;;0.00;;
26588;SDS011;14235;48.532;8.722;2023-12-20T02:48:23;0.05;;;0.05;;
26588;SDS011;14235;48.532;8.722;2023-12-20T02:50:49;0.77;;;0.20;;
26588;SDS011;14235;48.532;8.722;2023-12-20T02:53:15;0.10;;;0.10;;
26588;SDS011;14235;48.532;8.722;2023-12-20T02:55:41;0.20;;;0.20;;
26588;SDS011;14235;48.532;8.722;2023-12-20T02:58:07;0.05;;;0.05;;
26588;SDS011;14235;48.532;8.722;2023-12-20T03:00:32;0.10;;;0.10;;
26588;SDS011;14235;48.532;8.722;2023-12-20T03:02:58;0.10;;;0.10;;
26588;SDS011;14235;48.532;8.722;2023-12-20T03:05:24;0.05;;;0.05;;
26588;SDS011;14235;48.532;8.722;2023-12-20T03:07:50;0.88;;;0.10;;
26588;SDS011;14235;48.532;8.722;2023-12-20T03:10:16;0.10;;;0.10;;
26588;SDS011;14235;48.532;8.722;2023-12-20T03:12:41;0.00;;;0.00;;
26588;SDS011;14235;48.532;8.722;2023-12-20T03:15:07;0.28;;;0.10;;
26588;SDS011;14235;48.532;8.722;2023-12-20T03:17:33;0.10;;;0.10;;
26588;SDS011;14235;48.532;8.722;2023-12-20T03:19:58;0.10;;;0.10;;
26588;SDS011;14235;48.532;8.722;2023-12-20T03:22:24;0.10;;;0.00;;
26588;SDS011;14235;48.532;8.722;2023-12-20T03:24:49;0.10;;;0.10;;
26588;SDS011;14235;48.532;8.722;2023-12-20T03:27:15;0.10;;;0.10;;
26588;SDS011;14235;48.532;8.722;2023-12-20T03:29:40;0.10;;;0.10;;
26588;SDS011;14235;48.532;8.722;2023-12-20T03:32:06;0.10;;;0.05;;
26588;SDS011;14235;48.532;8.722;2023-12-20T03:34:33;0.43;;;0.08;;
26588;SDS011;14235;48.532;8.722;2023-12-20T03:36:59;0.10;;;0.10;;
26588;SDS011;14235;48.532;8.722;2023-12-20T03:39:24;0.17;;;0.17;;
26588;SDS011;14235;48.532;8.722;2023-12-20T03:41:50;0.15;;;0.15;;
26588;SDS011;14235;48.532;8.722;2023-12-20T03:44:15;0.20;;;0.10;;
26588;SDS011;14235;48.532;8.722;2023-12-20T03:46:41;0.20;;;0.20;;
26588;SDS011;14235;48.532;8.722;2023-12-20T03:49:06;0.32;;;0.20;;
26588;SDS011;14235;48.532;8.722;2023-12-20T03:51:32;0.17;;;0.17;;
26588;SDS011;14235;48.532;8.722;2023-12-20T03:53:57;0.08;;;0.08;;
26588;SDS011;14235;48.532;8.722;2023-12-20T03:56:23;0.10;;;0.10;;
26588;SDS011;14235;48.532;8.722;2023-12-20T03:58:48;0.10;;;0.10;;
26588;SDS011;14235;48.532;8.722;2023-12-20T04:01:14;0.10;;;0.10;;
26588;SDS011;14235;48.532;8.722;2023-12-20T04:03:40;0.20;;;0.20;;
26588;SDS011;14235;48.532;8.722;2023-12-20T04:06:05;1.95;;;0.00;;
26588;SDS011;14235;48.532;8.722;2023-12-20T04:08:31;1.88;;;0.20;;
26588;SDS011;14235;48.532;8.722;2023-12-20T04:10:56;0.63;;;0.10;;
26588;SDS011;14235;48.532;8.722;2023-12-20T04:13:22;0.10;;;0.10;;
26588;SDS011;14235;48.532;8.722;2023-12-20T04:15:48;0.28;;;0.20;;
26588;SDS011;14235;48.532;8.722;2023-12-20T04:18:15;1.42;;;0.15;;
26588;SDS011;14235;48.532;8.722;2023-12-20T04:20:40;0.30;;;0.20;;
26588;SDS011;14235;48.532;8.722;2023-12-20T04:23:06;0.63;;;0.32;;
26588;SDS011;14235;48.532;8.722;2023-12-20T04:25:32;0.38;;;0.20;;
26588;SDS011;14235;48.532;8.722;2023-12-20T04:27:57;0.22;;;0.10;;
26588;SDS011;14235;48.532;8.722;2023-12-20T04:30:23;0.03;;;0.03;;
26588;SDS011;14235;48.532;8.722;2023-12-20T04:32:48;0.25;;;0.25;;
26588;SDS011;14235;48.532;8.722;2023-12-20T04:35:14;1.00;;;0.88;;
26588;SDS011;14235;48.532;8.722;2023-12-20T04:37:39;0.60;;;0.55;;
26588;SDS011;14235;48.532;8.722;2023-12-20T04:40:05;0.50;;;0.38;;
26588;SDS011;14235;48.532;8.722;2023-12-20T04:42:31;0.65;;;0.28;;
26588;SDS011;14235;48.532;8.722;2023-12-20T04:44:56;0.10;;;0.10;;
26588;SDS011;14235;48.532;8.722;2023-12-20T04:47:22;2.15;;;0.20;;
26588;SDS011;14235;48.532;8.722;2023-12-20T04:49:48;0.00;;;0.00;;
26588;SDS011;14235;48.532;8.722;2023-12-20T04:52:13;0.45;;;0.32;;
26588;SDS011;14235;48.532;8.722;2023-12-20T04:54:39;0.13;;;0.13;;
26588;SDS011;14235;48.532;8.722;2023-12-20T04:57:05;0.10;;;0.10;;
26588;SDS011;14235;48.532;8.722;2023-12-20T04:59:30;0.10;;;0.10;;
26588;SDS011;14235;48.532;8.722;2023-12-20T05:01:56;0.20;;;0.20;;
26588;SDS011;14235;48.532;8.722;2023-12-20T05:04:22;0.52;;;0.20;;
26588;SDS011;14235;48.532;8.722;2023-12-20T05:06:48;0.10;;;0.10;;
26588;SDS011;14235;48.532;8.722;2023-12-20T05:09:15;0.28;;;0.28;;
26588;SDS011;14235;48.532;8.722;2023-12-20T05:11:40;0.32;;;0.32;;
26588;SDS011;14235;48.532;8.722;2023-12-20T05:14:06;0.20;;;0.20;;
26588;SDS011;14235;48.532;8.722;2023-12-20T05:16:32;0.55;;;0.40;;
26588;SDS011;14235;48.532;8.722;2023-12-20T05:18:57;0.30;;;0.30;;
26588;SDS011;14235;48.532;8.722;2023-12-20T05:21:25;0.93;;;0.93;;
26588;SDS011;14235;48.532;8.722;2023-12-20T05:23:51;2.53;;;2.42;;
26588;SDS011;14235;48.532;8.722;2023-12-20T05:26:16;8.75;;;7.82;;
26588;SDS011;14235;48.532;8.722;2023-12-20T05:28:42;9.32;;;8.23;;
26588;SDS011;14235;48.532;8.722;2023-12-20T05:31:08;7.00;;;6.18;;
26588;SDS011;14235;48.532;8.722;2023-12-20T05:33:34;5.75;;;5.20;;
26588;SDS011;14235;48.532;8.722;2023-12-20T05:35:59;6.65;;;5.30;;
26588;SDS011;14235;48.532;8.722;2023-12-20T05:38:25;4.93;;;4.53;;
26588;SDS011;14235;48.532;8.722;2023-12-20T05:40:51;4.72;;;4.22;;
26588;SDS011;14235;48.532;8.722;2023-12-20T05:43:16;3.70;;;3.40;;
26588;SDS011;14235;48.532;8.722;2023-12-20T05:45:42;3.60;;;3.30;;
26588;SDS011;14235;48.532;8.722;2023-12-20T05:48:07;6.00;;;4.15;;
26588;SDS011;14235;48.532;8.722;2023-12-20T05:50:33;4.97;;;4.00;;
26588;SDS011;14235;48.532;8.722;2023-12-20T05:52:59;7.10;;;5.28;;
26588;SDS011;14235;48.532;8.722;2023-12-20T05:55:25;10.23;;;6.55;;
26588;SDS011;14235;48.532;8.722;2023-12-20T05:57:51;6.18;;;4.80;;
26588;SDS011;14235;48.532;8.722;2023-12-20T06:00:17;4.05;;;3.08;;
26588;SDS011;14235;48.532;8.722;2023-12-20T06:02:43;2.08;;;1.90;;
26588;SDS011;14235;48.532;8.722;2023-12-20T06:05:08;1.65;;;0.82;;
26588;SDS011;14235;48.532;8.722;2023-12-20T06:07:34;1.85;;;0.63;;
26588;SDS011;14235;48.532;8.722;2023-12-20T06:10:00;0.40;;;0.40;;
26588;SDS011;14235;48.532;8.722;2023-12-20T06:12:25;1.33;;;0.77;;
26588;SDS011;14235;48.532;8.722;2023-12-20T06:14:52;0.90;;;0.90;;
26588;SDS011;14235;48.532;8.722;2023-12-20T06:17:18;1.20;;;0.98;;
26588;SDS011;14235;48.532;8.722;2023-12-20T06:19:43;5.05;;;4.03;;
26588;SDS011;14235;48.532;8.722;2023-12-20T06:22:13;3.03;;;2.70;;
26588;SDS011;14235;48.532;8.722;2023-12-20T06:24:38;2.20;;;2.00;;
26588;SDS011;14235;48.532;8.722;2023-12-20T06:27:04;1.60;;;1.50;;
26588;SDS011;14235;48.532;8.722;2023-12-20T06:29:29;1.40;;;1.30;;
26588;SDS011;14235;48.532;8.722;2023-12-20T06:31:56;4.32;;;2.28;;
26588;SDS011;14235;48.532;8.722;2023-12-20T06:34:21;1.80;;;1.70;;
26588;SDS011;14235;48.532;8.722;2023-12-20T06:36:47;1.98;;;1.88;;
26588;SDS011;14235;48.532;8.722;2023-12-20T06:39:12;1.95;;;1.67;;
26588;SDS011;14235;48.532;8.722;2023-12-20T06:41:39;2.15;;;2.00;;
26588;SDS011;14235;48.532;8.722;2023-12-20T06:44:04;2.78;;;2.58;;
26588;SDS011;14235;48.532;8.722;2023-12-20T06:46:30;3.60;;;2.15;;
26588;SDS011;14235;48.532;8.722;2023-12-20T06:48:56;2.00;;;1.90;;
26588;SDS011;14235;48.532;8.722;2023-12-20T06:51:21;1.80;;;1.70;;
26588;SDS011;14235;48.532;8.722;2023-12-20T06:53:50;2.17;;;2.00;;
26588;SDS011;14235;48.532;8.722;2023-12-20T06:56:16;1.35;;;1.30;;
26588;SDS011;14235;48.532;8.722;2023-12-20T06:58:42;1.23;;;1.10;;
26588;SDS011;14235;48.532;8.722;2023-12-20T07:01:11;0.90;;;0.90;;
26588;SDS011;14235;48.532;8.722;2023-12-20T07:03:37;1.95;;;1.00;;
26588;SDS011;14235;48.532;8.722;2023-12-20T07:06:03;3.15;;;1.77;;
26588;SDS011;14235;48.532;8.722;2023-12-20T07:08:28;3.03;;;1.58;;
26588;SDS011;14235;48.532;8.722;2023-12-20T07:10:54;2.55;;;1.83;;
26588;SDS011;14235;48.532;8.722;2023-12-20T07:13:19;3.50;;;3.20;;
26588;SDS011;14235;48.532;8.722;2023-12-20T07:15:45;4.00;;;3.38;;
26588;SDS011;14235;48.532;8.722;2023-12-20T07:18:11;4.75;;;3.50;;
26588;SDS011;14235;48.532;8.722;2023-12-20T07:20:36;6.03;;;3.78;;
26588;SDS011;14235;48.532;8.722;2023-12-20T07:23:02;4.95;;;3.55;;
26588;SDS011;14235;48.532;8.722;2023-12-20T07:25:27;7.20;;;4.40;;
26588;SDS011;14235;48.532;8.722;2023-12-20T07:27:53;7.70;;;5.43;;
26588;SDS011;14235;48.532;8.722;2023-12-20T07:30:19;7.95;;;5.60;;
26588;SDS011;14235;48.532;8.722;2023-12-20T07:32:44;4.93;;;3.55;;
26588;SDS011;14235;48.532;8.722;2023-12-20T07:35:10;3.67;;;3.10;;
26588;SDS011;14235;48.532;8.722;2023-12-20T07:37:36;3.55;;;2.85;;
26588;SDS011;14235;48.532;8.722;2023-12-20T07:40:01;3.83;;;2.75;;
26588;SDS011;14235;48.532;8.722;2023-12-20T07:42:28;4.57;;;4.13;;
26588;SDS011;14235;48.532;8.722;2023-12-20T07:44:54;3.88;;;3.58;;
26588;SDS011;14235;48.532;8.722;2023-12-20T07:47:20;2.55;;;2.30;;
26588;SDS011;14235;48.532;8.722;2023-12-20T07:49:49;2.30;;;2.10;;
26588;SDS011;14235;48.532;8.722;2023-12-20T07:52:16;2.20;;;2.00;;
26588;SDS011;14235;48.532;8.722;2023-12-20T07:55:02;1.13;;;0.90;;
26588;SDS011;14235;48.532;8.722;2023-12-20T07:57:29;3.38;;;2.22;;
26588;SDS011;14235;48.532;8.722;2023-12-20T07:59:55;1.73;;;1.52;;
26588;SDS011;14235;48.532;8.722;2023-12-20T08:02:21;1.80;;;1.70;;
26588;SDS011;14235;48.532;8.722;2023-12-20T08:04:46;1.77;;;1.67;;
26588;SDS011;14235;48.532;8.722;2023-12-20T08:07:12;1.88;;;1.77;;
26588;SDS011;14235;48.532;8.722;2023-12-20T08:09:38;1.55;;;1.45;;
26588;SDS011;14235;48.532;8.722;2023-12-20T08:12:03;2.60;;;2.30;;
26588;SDS011;14235;48.532;8.722;2023-12-20T08:14:29;2.83;;;2.42;;
26588;SDS011;14235;48.532;8.722;2023-12-20T08:16:56;2.60;;;2.40;;
26588;SDS011;14235;48.532;8.722;2023-12-20T08:19:22;3.38;;;2.78;;
26588;SDS011;14235;48.532;8.722;2023-12-20T08:21:47;3.15;;;2.78;;
26588;SDS011;14235;48.532;8.722;2023-12-20T08:24:13;3.78;;;3.30;;
26588;SDS011;14235;48.532;8.722;2023-12-20T08:26:38;4.90;;;3.45;;
26588;SDS011;14235;48.532;8.722;2023-12-20T08:29:04;5.63;;;3.90;;
26588;SDS011;14235;48.532;8.722;2023-12-20T08:31:29;3.20;;;3.00;;
26588;SDS011;14235;48.532;8.722;2023-12-20T08:33:55;3.67;;;3.33;;
26588;SDS011;14235;48.532;8.722;2023-12-20T08:36:21;3.50;;;3.20;;
26588;SDS011;14235;48.532;8.722;2023-12-20T08:38:48;4.80;;;3.70;;
26588;SDS011;14235;48.532;8.722;2023-12-20T08:41:13;6.53;;;4.25;;
26588;SDS011;14235;48.532;8.722;2023-12-20T08:43:39;6.30;;;4.60;;
26588;SDS011;14235;48.532;8.722;2023-12-20T08:46:05;6.30;;;4.43;;
26588;SDS011;14235;48.532;8.722;2023-12-20T08:48:31;3.03;;;2.67;;
26588;SDS011;14235;48.532;8.722;2023-12-20T08:50:56;2.30;;;1.70;;
26588;SDS011;14235;48.532;8.722;2023-12-20T08:53:22;1.10;;;1.10;;
26588;SDS011;14235;48.532;8.722;2023-12-20T08:55:47;0.70;;;0.70;;
26588;SDS011;14235;48.532;8.722;2023-12-20T08:58:13;1.20;;;0.80;;
26588;SDS011;14235;48.532;8.722;2023-12-20T09:00:39;0.60;;;0.60;;
26588;SDS011;14235;48.532;8.722;2023-12-20T09:03:05;0.80;;;0.80;;
26588;SDS011;14235;48.532;8.722;2023-12-20T09:05:30;1.48;;;1.00;;
26588;SDS011;14235;48.532;8.722;2023-12-20T09:07:56;2.50;;;0.85;;
26588;SDS011;14235;48.532;8.722;2023-12-20T09:10:22;1.95;;;0.77;;
26588;SDS011;14235;48.532;8.722;2023-12-20T09:12:51;1.25;;;0.80;;
26588;SDS011;14235;48.532;8.722;2023-12-20T09:15:21;1.48;;;0.75;;
26588;SDS011;14235;48.532;8.722;2023-12-20T09:17:48;0.65;;;0.65;;
26588;SDS011;14235;48.532;8.722;2023-12-20T09:20:13;1.02;;;1.02;;
26588;SDS011;14235;48.532;8.722;2023-12-20T09:22:39;0.70;;;0.70;;
26588;SDS011;14235;48.532;8.722;2023-12-20T09:25:06;2.20;;;1.08;;
26588;SDS011;14235;48.532;8.722;2023-12-20T09:27:33;1.30;;;1.02;;
26588;SDS011;14235;48.532;8.722;2023-12-20T09:29:58;1.67;;;1.00;;
26588;SDS011;14235;48.532;8.722;2023-12-20T09:32:24;4.15;;;1.13;;
26588;SDS011;14235;48.532;8.722;2023-12-20T09:34:49;1.65;;;1.23;;
26588;SDS011;14235;48.532;8.722;2023-12-20T09:37:15;1.30;;;1.10;;
26588;SDS011;14235;48.532;8.722;2023-12-20T09:39:40;2.10;;;1.90;;
26588;SDS011;14235;48.532;8.722;2023-12-20T09:42:06;1.98;;;1.42;;
26588;SDS011;14235;48.532;8.722;2023-12-20T09:44:32;2.17;;;1.40;;
26588;SDS011;14235;48.532;8.722;2023-12-20T09:47:02;3.25;;;1.30;;
26588;SDS011;14235;48.532;8.722;2023-12-20T09:49:29;2.13;;;1.10;;
26588;SDS011;14235;48.532;8.722;2023-12-20T09:51:56;1.88;;;1.17;;
26588;SDS011;14235;48.532;8.722;2023-12-20T09:54:22;3.60;;;1.13;;
26588;SDS011;14235;48.532;8.722;2023-12-20T09:56:49;3.42;;;1.65;;
26588;SDS011;14235;48.532;8.722;2023-12-20T09:59:14;3.70;;;1.70;;
26588;SDS011;14235;48.532;8.722;2023-12-20T10:01:40;4.43;;;1.80;;
26588;SDS011;14235;48.532;8.722;2023-12-20T10:04:07;2.38;;;0.98;;
26588;SDS011;14235;48.532;8.722;2023-12-20T10:06:37;2.90;;;1.00;;
26588;SDS011;14235;48.532;8.722;2023-12-20T10:09:04;1.98;;;1.25;;
26588;SDS011;14235;48.532;8.722;2023-12-20T10:11:30;2.88;;;1.20;;
26588;SDS011;14235;48.532;8.722;2023-12-20T10:13:59;2.95;;;1.67;;
26588;SDS011;14235;48.532;8.722;2023-12-20T10:16:28;2.70;;;1.40;;
26588;SDS011;14235;48.532;8.722;2023-12-20T10:18:54;1.95;;;1.20;;
26588;SDS011;14235;48.532;8.722;2023-12-20T10:21:21;3.05;;;1.05;;
26588;SDS011;14235;48.532;8.722;2023-12-20T10:23:48;3.17;;;1.38;;
26588;SDS011;14235;48.532;8.722;2023-12-20T10:26:20;4.15;;;2.65;;
26588;SDS011;14235;48.532;8.722;2023-12-20T10:28:54;2.47;;;1.60;;
26588;SDS011;14235;48.532;8.722;2023-12-20T10:31:30;1.73;;;1.17;;
26588;SDS011;14235;48.532;8.722;2023-12-20T10:34:00;3.28;;;1.30;;
26588;SDS011;14235;48.532;8.722;2023-12-20T10:36:27;2.58;;;1.10;;
26588;SDS011;14235;48.532;8.722;2023-12-20T10:38:56;3.17;;;1.35;;
26588;SDS011;14235;48.532;8.722;2023-12-20T10:41:29;2.03;;;1.30;;
26588;SDS011;14235;48.532;8.722;2023-12-20T10:44:00;2.50;;;1.20;;
26588;SDS011;14235;48.532;8.722;2023-12-20T10:46:28;2.85;;;1.40;;
26588;SDS011;14235;48.532;8.722;2023-12-20T10:48:54;1.73;;;1.20;;
26588;SDS011;14235;48.532;8.722;2023-12-20T10:51:21;1.25;;;1.15;;
26588;SDS011;14235;48.532;8.722;2023-12-20T10:53:48;1.58;;;1.13;;
26588;SDS011;14235;48.532;8.722;2023-12-20T10:56:16;3.63;;;1.52;;
26588;SDS011;14235;48.532;8.722;2023-12-20T10:58:43;2.83;;;1.42;;
26588;SDS011;14235;48.532;8.722;2023-12-20T11:01:10;1.00;;;1.00;;
26588;SDS011;14235;48.532;8.722;2023-12-20T11:03:39;1.73;;;1.35;;
26588;SDS011;14235;48.532;8.722;2023-12-20T11:12:20;2.05;;;1.55;;
26588;SDS011;14235;48.532;8.722;2023-12-20T11:14:22;1.30;;;1.20;;
26588;SDS011;14235;48.532;8.722;2023-12-20T11:17:05;3.20;;;1.35;;
26588;SDS011;14235;48.532;8.722;2023-12-20T11:19:36;2.28;;;1.48;;
26588;SDS011;14235;48.532;8.722;2023-12-20T11:22:03;3.88;;;1.45;;
26588;SDS011;14235;48.532;8.722;2023-12-20T11:24:30;4.07;;;1.63;;
26588;SDS011;14235;48.532;8.722;2023-12-20T11:26:57;4.03;;;1.48;;
26588;SDS011;14235;48.532;8.722;2023-12-20T11:29:34;3.45;;;1.40;;
26588;SDS011;14235;48.532;8.722;2023-12-20T11:32:03;4.28;;;1.50;;
26588;SDS011;14235;48.532;8.722;2023-12-20T11:34:50;2.67;;;1.33;;
26588;SDS011;14235;48.532;8.722;2023-12-20T11:37:16;2.58;;;1.30;;
26588;SDS011;14235;48.532;8.722;2023-12-20T11:39:44;4.35;;;1.33;;
26588;SDS011;14235;48.532;8.722;2023-12-20T11:42:09;2.25;;;1.25;;
26588;SDS011;14235;48.532;8.722;2023-12-20T11:44:36;2.10;;;1.42;;
26588;SDS011;14235;48.532;8.722;2023-12-20T11:47:02;1.85;;;1.25;;
26588;SDS011;14235;48.532;8.722;2023-12-20T11:49:27;1.95;;;1.45;;
26588;SDS011;14235;48.532;8.722;2023-12-20T11:51:55;3.78;;;1.70;;
26588;SDS011;14235;48.532;8.722;2023-12-20T11:54:21;2.13;;;1.48;;
26588;SDS011;14235;48.532;8.722;2023-12-20T11:56:47;2.03;;;1.33;;
26588;SDS011;14235;48.532;8.722;2023-12-20T11:59:13;4.05;;;1.70;;
26588;SDS011;14235;48.532;8.722;2023-12-20T12:01:39;5.43;;;1.70;;
26588;SDS011;14235;48.532;8.722;2023-12-20T12:04:05;4.15;;;1.40;;
26588;SDS011;14235;48.532;8.722;2023-12-20T12:06:31;7.05;;;2.33;;
26588;SDS011;14235;48.532;8.722;2023-12-20T12:08:58;2.47;;;1.23;;
26588;SDS011;14235;48.532;8.722;2023-12-20T12:11:24;3.90;;;1.75;;
26588;SDS011;14235;48.532;8.722;2023-12-20T12:13:49;2.60;;;1.60;;
26588;SDS011;14235;48.532;8.722;2023-12-20T12:16:19;3.80;;;1.52;;
26588;SDS011;14235;48.532;8.722;2023-12-20T12:18:45;3.63;;;1.70;;
26588;SDS011;14235;48.532;8.722;2023-12-20T12:21:18;3.28;;;1.77;;
26588;SDS011;14235;48.532;8.722;2023-12-20T12:23:45;2.95;;;1.80;;
26588;SDS011;14235;48.532;8.722;2023-12-20T12:26:11;4.53;;;1.92;;
26588;SDS011;14235;48.532;8.722;2023-12-20T12:28:37;2.85;;;1.80;;
26588;SDS011;14235;48.532;8.722;2023-12-20T12:31:06;3.95;;;1.88;;
26588;SDS011;14235;48.532;8.722;2023-12-20T12:33:32;3.42;;;1.75;;
26588;SDS011;14235;48.532;8.722;2023-12-20T12:35:57;4.03;;;1.70;;
26588;SDS011;14235;48.532;8.722;2023-12-20T12:38:24;3.10;;;1.42;;
26588;SDS011;14235;48.532;8.722;2023-12-20T12:40:50;4.15;;;1.70;;
26588;SDS011;14235;48.532;8.722;2023-12-20T12:43:18;2.60;;;1.50;;
26588;SDS011;14235;48.532;8.722;2023-12-20T12:45:43;5.55;;;2.10;;
26588;SDS011;14235;48.532;8.722;2023-12-20T12:48:09;4.40;;;2.25;;
26588;SDS011;14235;48.532;8.722;2023-12-20T12:50:35;4.38;;;1.70;;
26588;SDS011;14235;48.532;8.722;2023-12-20T12:53:00;3.78;;;1.70;;
26588;SDS011;14235;48.532;8.722;2023-12-20T12:55:27;2.28;;;1.40;;
26588;SDS011;14235;48.532;8.722;2023-12-20T12:57:53;5.13;;;2.00;;
26588;SDS011;14235;48.532;8.722;2023-12-20T13:00:19;3.92;;;1.50;;
26588;SDS011;14235;48.532;8.722;2023-12-20T13:02:45;5.82;;;1.75;;
26588;SDS011;14235;48.532;8.722;2023-12-20T13:05:10;3.72;;;1.23;;
26588;SDS011;14235;48.532;8.722;2023-12-20T13:07:36;4.72;;;1.85;;
26588;SDS011;14235;48.532;8.722;2023-12-20T13:10:02;2.22;;;1.65;;
26588;SDS011;14235;48.532;8.722;2023-12-20T13:12:29;3.03;;;1.42;;
26588;SDS011;14235;48.532;8.722;2023-12-20T13:14:54;3.80;;;1.30;;
26588;SDS011;14235;48.532;8.722;2023-12-20T13:17:20;5.03;;;1.40;;
26588;SDS011;14235;48.532;8.722;2023-12-20T13:19:45;3.22;;;1.52;;
26588;SDS011;14235;48.532;8.722;2023-12-20T13:22:11;3.95;;;1.33;;
26588;SDS011;14235;48.532;8.722;2023-12-20T13:24:37;1.80;;;1.17;;
26588;SDS011;14235;48.532;8.722;2023-12-20T13:27:02;2.90;;;1.63;;
26588;SDS011;14235;48.532;8.722;2023-12-20T13:29:28;2.65;;;1.27;;
26588;SDS011;14235;48.532;8.722;2023-12-20T13:31:54;1.77;;;1.15;;
26588;SDS011;14235;48.532;8.722;2023-12-20T13:34:19;2.83;;;1.33;;
26588;SDS011;14235;48.532;8.722;2023-12-20T13:36:46;4.07;;;1.30;;
26588;SDS011;14235;48.532;8.722;2023-12-20T13:39:12;3.75;;;1.10;;
26588;SDS011;14235;48.532;8.722;2023-12-20T13:41:38;2.28;;;1.20;;
26588;SDS011;14235;48.532;8.722;2023-12-20T13:44:04;4.38;;;1.40;;
26588;SDS011;14235;48.532;8.722;2023-12-20T13:46:30;4.07;;;1.60;;
26588;SDS011;14235;48.532;8.722;2023-12-20T14:10:25;2.90;;;1.40;;
26588;SDS011;14235;48.532;8.722;2023-12-20T14:27:29;1.95;;;1.13;;
26588;SDS011;14235;48.532;8.722;2023-12-20T15:35:17;4.00;;;1.70;;
26588;SDS011;14235;48.532;8.722;2023-12-20T15:38:26;4.70;;;2.33;;
26588;SDS011;14235;48.532;8.722;2023-12-20T15:40:52;3.33;;;2.30;;
26588;SDS011;14235;48.532;8.722;2023-12-20T15:43:19;3.97;;;2.60;;
26588;SDS011;14235;48.532;8.722;2023-12-20T15:45:45;5.40;;;2.38;;
26588;SDS011;14235;48.532;8.722;2023-12-20T15:48:11;3.17;;;1.90;;
26588;SDS011;14235;48.532;8.722;2023-12-20T15:50:42;3.17;;;1.98;;
26588;SDS011;14235;48.532;8.722;2023-12-20T15:53:08;3.20;;;2.60;;
26588;SDS011;14235;48.532;8.722;2023-12-20T15:55:35;4.65;;;3.00;;
26588;SDS011;14235;48.532;8.722;2023-12-20T15:58:00;3.13;;;2.60;;
26588;SDS011;14235;48.532;8.722;2023-12-20T16:00:26;2.75;;;2.13;;
26588;SDS011;14235;48.532;8.722;2023-12-20T16:02:52;3.00;;;1.70;;
26588;SDS011;14235;48.532;8.722;2023-12-20T16:05:18;3.33;;;1.92;;
26588;SDS011;14235;48.532;8.722;2023-12-20T16:07:44;1.60;;;1.42;;
26588;SDS011;14235;48.532;8.722;2023-12-20T16:10:10;3.30;;;1.80;;
26588;SDS011;14235;48.532;8.722;2023-12-20T16:12:36;3.92;;;1.88;;
26588;SDS011;14235;48.532;8.722;2023-12-20T16:15:02;2.30;;;1.70;;
26588;SDS011;14235;48.532;8.722;2023-12-20T16:17:28;4.47;;;1.95;;
26588;SDS011;14235;48.532;8.722;2023-12-20T16:19:54;2.40;;;1.88;;
26588;SDS011;14235;48.532;8.722;2023-12-20T16:22:20;3.15;;;2.45;;
26588;SDS011;14235;48.532;8.722;2023-12-20T16:24:46;2.83;;;2.10;;
26588;SDS011;14235;48.532;8.722;2023-12-20T16:27:11;2.53;;;2.33;;
26588;SDS011;14235;48.532;8.722;2023-12-20T16:29:37;2.33;;;1.67;;
26588;SDS011;14235;48.532;8.722;2023-12-20T16:32:03;1.80;;;1.70;;